Time;durP1;ratioP1;P1;durP2;ratioP2;P2;SDS_P1;SDS_P2;PMS_P1;PMS_P2;Temp;Humidity;BMP_temperature;BMP_pressure;BME280_temperature;BME280_humidity;BME280_pressure;Samples;Min_cycle;Max_cycle;Signal;HPM_P1;HPM_P2
2022/04/10 00:00:33;;;;;;;12.35;11.52;;;;;;;3.17;100.00;101904.44;5229438;28;20465;-66
2022/04/10 00:03:04;;;;;;;11.88;10.23;;;;;;;3.19;100.00;101897.03;5246016;28;20044;-66
2022/04/10 00:05:34;;;;;;;9.90;9.23;;;;;;;3.18;100.00;101903.38;5245813;28;20090;-63
2022/04/10 00:08:05;;;;;;;10.75;10.05;;;;;;;3.20;100.00;101895.19;5228239;28;20501;-66
2022/04/10 00:10:36;;;;;;;11.25;10.18;;;;;;;3.07;100.00;101879.00;5229235;28;20474;-66
2022/04/10 00:13:07;;;;;;;9.77;9.02;;;;;;;3.22;100.00;101896.69;5228928;28;20063;-66
2022/04/10 00:15:38;;;;;;;13.00;9.13;;;;;;;3.17;100.00;101891.09;5228814;28;20555;-66
2022/04/10 00:18:09;;;;;;;10.82;9.82;;;;;;;3.17;100.00;101892.94;5229058;28;20032;-66
2022/04/10 00:20:39;;;;;;;9.25;8.52;;;;;;;3.20;100.00;101889.88;5245508;28;20036;-66
2022/04/10 00:23:10;;;;;;;13.93;10.18;;;;;;;3.19;100.00;101891.69;5228846;28;20552;-66
2022/04/10 00:25:40;;;;;;;8.57;7.97;;;;;;;3.24;100.00;101889.31;5228753;28;20024;-66
2022/04/10 00:28:10;;;;;;;9.85;9.02;;;;;;;3.27;100.00;101896.13;5245597;28;20028;-65
2022/04/10 00:30:41;;;;;;;12.20;9.68;;;;;;;3.28;100.00;101892.47;5228571;28;20020;-67
2022/04/10 00:33:11;;;;;;;8.77;8.13;;;;;;;3.29;100.00;101894.13;5228687;28;20020;-66
2022/04/10 00:35:42;;;;;;;9.50;8.80;;;;;;;3.16;100.00;101870.75;5228640;28;20025;-66
2022/04/10 00:38:13;;;;;;;9.85;9.00;;;;;;;3.33;100.00;101898.09;5245428;28;20031;-66
2022/04/10 00:40:43;;;;;;;11.73;9.18;;;;;;;3.33;100.00;101901.59;5228583;28;20020;-66
2022/04/10 00:43:15;;;;;;;10.68;9.38;;;;;;;3.30;100.00;101885.09;5228342;28;20031;-67
2022/04/10 00:45:46;;;;;;;10.98;10.20;;;;;;;3.29;100.00;101899.47;5244958;28;20028;-65
2022/04/10 00:48:16;;;;;;;10.40;9.43;;;;;;;3.31;100.00;101897.44;5228593;28;20031;-65
2022/04/10 00:51:40;;;;;;;12.80;10.20;;;;;;;3.28;100.00;101897.78;5246272;28;20021;-66
2022/04/10 00:53:38;;;;;;;13.82;9.77;;;;;;;3.28;100.00;101903.97;5246030;28;20032;-66
2022/04/10 00:56:08;;;;;;;9.02;8.18;;;;;;;3.10;100.00;101871.47;5244971;28;20437;-66
2022/04/10 00:58:39;;;;;;;9.75;9.07;;;;;;;3.05;100.00;101872.00;5245016;28;20119;-66
2022/04/10 01:01:09;;;;;;;10.73;9.98;;;;;;;3.10;100.00;101884.81;5244946;28;20036;-66
2022/04/10 01:03:40;;;;;;;12.20;11.05;;;;;;;3.24;100.00;101905.34;5227967;28;20021;-66
2022/04/10 01:06:10;;;;;;;9.90;9.30;;;;;;;3.23;100.00;101900.19;5244879;28;20028;-66
2022/04/10 01:08:41;;;;;;;9.13;8.45;;;;;;;3.25;100.00;101901.66;5245246;28;20028;-65
2022/04/10 01:11:12;;;;;;;13.07;10.00;;;;;;;3.26;100.00;101906.00;5228417;28;20087;-66
2022/04/10 01:13:43;;;;;;;11.50;10.75;;;;;;;3.27;100.00;101896.97;5245178;28;20036;-66
2022/04/10 01:16:14;;;;;;;10.13;9.32;;;;;;;3.32;100.00;101904.44;5244778;28;20024;-67
2022/04/10 01:18:45;;;;;;;10.50;9.80;;;;;;;3.33;100.00;101904.25;5227579;28;20031;-66
2022/04/10 01:21:23;;;;;;;10.68;9.95;;;;;;;3.35;100.00;101906.75;5227750;28;20028;-65
2022/04/10 01:23:55;;;;;;;11.50;10.45;;;;;;;3.33;100.00;101898.91;5227637;28;20395;-66
2022/04/10 01:26:27;;;;;;;11.55;10.73;;;;;;;3.30;100.00;101904.63;5244883;28;20560;-66
2022/04/10 01:29:06;;;;;;;13.30;10.45;;;;;;;3.24;100.00;101900.00;5228047;28;20173;-66
2022/04/10 01:31:39;;;;;;;9.32;8.82;;;;;;;3.20;100.00;101901.38;5227820;28;20048;-65
2022/04/10 01:34:15;;;;;;;9.40;8.73;;;;;;;3.17;100.00;101895.59;5227753;28;20525;-65
2022/04/10 01:36:46;;;;;;;10.27;9.63;;;;;;;3.16;100.00;101902.78;5227872;28;20482;-65
2022/04/10 01:39:17;;;;;;;10.57;9.85;;;;;;;3.00;100.00;101874.38;5244577;28;20051;-66
2022/04/10 01:41:47;;;;;;;12.05;9.60;;;;;;;3.24;100.00;101896.50;5228160;28;20033;-66
2022/04/10 01:44:18;;;;;;;9.90;9.20;;;;;;;3.25;100.00;101898.16;5244109;28;20031;-65
2022/04/10 01:46:48;;;;;;;10.38;9.68;;;;;;;3.21;100.00;101896.88;5228005;28;20024;-65
2022/04/10 01:49:19;;;;;;;9.77;8.95;;;;;;;3.24;100.00;101908.00;5244878;28;20025;-65
2022/04/10 01:51:49;;;;;;;9.98;9.18;;;;;;;3.24;100.00;101894.66;5245530;28;20549;-67
2022/04/10 01:54:20;;;;;;;9.80;8.90;;;;;;;3.25;100.00;101904.31;5244050;28;20075;-66
2022/04/10 01:56:50;;;;;;;9.05;8.20;;;;;;;3.06;100.00;101872.84;5244555;28;20116;-66
2022/04/10 01:59:21;;;;;;;9.95;9.07;;;;;;;3.25;100.00;101898.16;5245435;28;20020;-64
2022/04/10 02:01:51;;;;;;;10.25;9.45;;;;;;;3.25;100.00;101898.16;5227687;28;20028;-66
2022/04/10 02:04:22;;;;;;;10.02;9.38;;;;;;;3.16;100.00;101896.59;5227298;28;20441;-65
2022/04/10 02:06:52;;;;;;;10.45;9.65;;;;;;;3.25;100.00;101896.31;5228147;28;20017;-67
2022/04/10 02:09:22;;;;;;;8.88;8.18;;;;;;;3.26;100.00;101900.66;5227943;28;20024;-65
2022/04/10 02:11:53;;;;;;;10.07;9.05;;;;;;;3.27;100.00;101898.81;5227691;28;20397;-65
2022/04/10 02:14:23;;;;;;;10.05;9.45;;;;;;;3.26;100.00;101900.66;5243877;28;20032;-66
2022/04/10 02:16:54;;;;;;;9.75;9.25;;;;;;;2.91;100.00;101846.13;5227324;28;20027;-65
2022/04/10 02:19:24;;;;;;;11.35;10.45;;;;;;;3.24;100.00;101901.84;5244029;28;20039;-65
2022/04/10 02:21:57;;;;;;;11.20;10.40;;;;;;;3.21;100.00;101903.03;5227529;28;20040;-65
2022/04/10 02:24:27;;;;;;;10.77;9.88;;;;;;;3.19;100.00;101904.22;5227080;28;20120;-65
2022/04/10 02:26:58;;;;;;;9.68;9.05;;;;;;;3.11;100.00;101899.81;5245217;28;20107;-67
2022/04/10 02:29:28;;;;;;;10.70;10.00;;;;;;;3.16;100.00;101912.63;5245083;28;20478;-66
2022/04/10 02:31:59;;;;;;;10.50;9.60;;;;;;;3.12;100.00;101895.31;5228837;28;20538;-65
2022/04/10 02:34:29;;;;;;;10.30;9.15;;;;;;;2.99;100.00;101888.72;5247427;28;20036;-66
2022/04/10 02:36:59;;;;;;;11.73;10.70;;;;;;;3.07;100.00;101895.84;5248965;28;20024;-66
2022/04/10 02:39:30;;;;;;;10.45;9.48;;;;;;;2.88;100.00;101865.19;5247302;28;20016;-66
2022/04/10 02:42:00;;;;;;;10.85;10.15;;;;;;;2.96;100.00;101889.09;5247597;28;20100;-66
2022/04/10 02:44:31;;;;;;;11.70;10.57;;;;;;;2.89;100.00;101898.81;5247243;28;20036;-65
2022/04/10 02:47:01;;;;;;;11.90;10.80;;;;;;;2.80;100.00;101893.75;5230966;28;20027;-65
2022/04/10 02:49:32;;;;;;;10.98;10.18;;;;;;;2.53;100.00;101882.63;5230940;28;20235;-66
2022/04/10 02:52:02;;;;;;;9.90;9.20;;;;;;;2.52;100.00;101912.13;5247378;28;20393;-66
2022/04/10 02:54:33;;;;;;;10.40;9.80;;;;;;;2.38;100.00;101914.53;5230353;28;20123;-66
2022/04/10 02:57:04;;;;;;;11.90;11.07;;;;;;;2.27;100.00;101922.13;5230810;28;20035;-66
2022/04/10 02:59:34;;;;;;;10.00;9.27;;;;;;;2.16;100.00;101927.84;5247187;28;20077;-66
2022/04/10 03:02:05;;;;;;;10.40;9.75;;;;;;;2.02;100.00;101921.44;5230546;28;20028;-65
2022/04/10 03:04:35;;;;;;;12.10;10.85;;;;;;;1.93;100.00;101931.28;5229953;28;20020;-65
2022/04/10 03:07:06;;;;;;;11.00;10.30;;;;;;;1.84;100.00;101924.31;5230401;28;20028;-65
2022/04/10 03:09:36;;;;;;;10.73;9.93;;;;;;;1.80;100.00;101933.66;5230419;28;20016;-65
2022/04/10 03:12:08;;;;;;;13.00;9.80;;;;;;;1.73;100.00;101927.38;5230503;28;20028;-64
2022/04/10 03:14:38;;;;;;;10.90;10.20;;;;;;;1.65;100.00;101914.09;5229921;28;20016;-64
2022/04/10 03:17:09;;;;;;;11.93;11.02;;;;;;;1.69;100.00;101932.22;5246767;28;20024;-65
2022/04/10 03:19:39;;;;;;;16.60;11.18;;;;;;;1.74;100.00;101930.84;5230170;28;20024;-66
2022/04/10 03:22:10;;;;;;;12.05;11.18;;;;;;;1.75;100.00;101938.66;5230235;28;20409;-66
2022/04/10 03:24:40;;;;;;;12.68;11.63;;;;;;;1.74;100.00;101934.34;5229628;28;20119;-65
2022/04/10 03:27:11;;;;;;;11.25;10.55;;;;;;;1.72;100.00;101927.56;5230286;28;20440;-64
2022/04/10 03:29:42;;;;;;;12.32;11.32;;;;;;;1.75;100.00;101935.16;5229994;28;20077;-64
2022/04/10 03:32:12;;;;;;;11.25;10.35;;;;;;;1.78;100.00;101946.31;5229901;28;20357;-64
2022/04/10 03:34:42;;;;;;;12.80;12.00;;;;;;;1.79;100.00;101939.16;5246294;28;20138;-65
2022/04/10 03:37:13;;;;;;;13.93;12.60;;;;;;;1.88;100.00;101946.94;5229867;28;20032;-64
2022/04/10 03:39:43;;;;;;;18.10;11.85;;;;;;;1.88;100.00;101938.97;5246896;28;20394;-64
2022/04/10 03:42:14;;;;;;;15.23;13.70;;;;;;;1.81;100.00;101930.00;5229646;28;20402;-64
2022/04/10 03:44:44;;;;;;;12.77;11.82;;;;;;;1.96;100.00;101943.44;5247222;28;20050;-64
2022/04/10 03:47:15;;;;;;;13.30;12.38;;;;;;;1.97;100.00;101951.25;5246341;28;20498;-64
2022/04/10 03:49:45;;;;;;;13.02;12.15;;;;;;;2.01;100.00;101949.91;5246260;28;20256;-65
2022/04/10 03:52:15;;;;;;;12.52;11.60;;;;;;;2.06;100.00;101953.84;5229511;28;20024;-65
2022/04/10 03:54:46;;;;;;;16.20;12.13;;;;;;;2.07;100.00;101950.19;5246181;28;20032;-65
2022/04/10 03:57:16;;;;;;;12.48;11.13;;;;;;;2.09;100.00;101954.34;5247441;28;20020;-65
2022/04/10 03:59:47;;;;;;;13.70;12.45;;;;;;;2.10;100.00;101965.84;5246007;28;20032;-65
2022/04/10 04:02:17;;;;;;;13.32;12.43;;;;;;;2.06;100.00;101953.84;5245779;28;20029;-65
2022/04/10 04:04:50;;;;;;;12.13;11.27;;;;;;;2.12;100.00;101962.00;5229016;28;20032;-65
2022/04/10 04:07:20;;;;;;;12.52;11.63;;;;;;;2.07;100.00;101955.53;5229150;28;20075;-65
2022/04/10 04:09:51;;;;;;;14.98;13.48;;;;;;;2.12;100.00;101966.50;5229333;28;20106;-66
2022/04/10 04:12:21;;;;;;;14.48;13.13;;;;;;;2.11;100.00;101962.16;5229252;28;20021;-65
2022/04/10 04:14:52;;;;;;;16.20;15.00;;;;;;;2.01;100.00;101941.09;5228762;28;20035;-65
2022/04/10 04:17:22;;;;;;;12.88;11.90;;;;;;;2.07;100.00;101950.19;5296254;22;20096;-83
2022/04/10 04:19:53;;;;;;;14.40;13.30;;;;;;;2.13;100.00;101976.97;5282106;28;20028;-84
2022/04/10 04:22:24;;;;;;;13.20;12.20;;;;;;;1.84;100.00;101924.31;5285178;28;20023;-84
2022/04/10 04:24:54;;;;;;;13.45;12.55;;;;;;;2.11;100.00;101971.00;5291243;28;20028;-84
2022/04/10 04:27:25;;;;;;;12.90;11.90;;;;;;;2.02;100.00;101956.88;5282579;28;20019;-84
2022/04/10 04:29:55;;;;;;;14.25;12.93;;;;;;;1.95;100.00;101953.25;5281425;28;20023;-84
2022/04/10 04:32:26;;;;;;;13.73;12.73;;;;;;;2.10;100.00;101971.16;5282684;28;20038;-84
2022/04/10 04:34:56;;;;;;;13.57;12.57;;;;;;;1.85;100.00;101931.31;5277794;22;20043;-94
2022/04/10 04:37:27;;;;;;;15.73;14.07;;;;;;;2.03;100.00;101973.69;5271529;28;20111;-92
2022/04/10 04:39:57;;;;;;;15.52;13.93;;;;;;;1.80;100.00;101935.50;5272421;28;20051;-93
2022/04/10 04:42:27;;;;;;;14.48;13.48;;;;;;;0.67;100.00;101786.63;5272720;28;20023;-93
2022/04/10 04:44:58;;;;;;;15.50;14.07;;;;;;;1.97;100.00;101966.41;5254811;28;20029;-93
2022/04/10 04:47:29;;;;;;;16.05;14.32;;;;;;;1.14;100.00;101836.41;5255635;28;20012;-92
2022/04/10 04:49:59;;;;;;;13.98;12.93;;;;;;;0.55;100.00;101756.09;5255892;28;20071;-92
2022/04/10 04:52:29;;;;;;;15.13;13.85;;;;;;;1.82;100.00;101984.09;5273243;28;20018;-93
2022/04/10 04:55:00;;;;;;;15.68;14.20;;;;;;;0.70;100.00;101774.81;5255599;28;20081;-91
2022/04/10 04:57:30;;;;;;;14.88;13.73;;;;;;;0.10;100.00;101735.34;5256599;28;20008;-92
2022/04/10 05:00:01;;;;;;;15.73;14.20;;;;;;;0.50;100.00;101814.22;5273132;28;20044;-93
2022/04/10 05:02:32;;;;;;;15.35;14.32;;;;;;;-0.71;100.00;101589.34;5272880;28;20020;-93
2022/04/10 05:05:03;;;;;;;15.40;14.02;;;;;;;0.84;100.00;101864.53;5254173;28;20055;-92
2022/04/10 05:07:33;;;;;;;15.57;14.27;;;;;;;0.35;100.00;101823.84;5272896;28;20056;-93
2022/04/10 05:10:04;;;;;;;15.80;14.48;;;;;;;0.24;100.00;101781.69;5255628;28;20021;-93
2022/04/10 05:12:35;;;;;;;15.75;14.50;;;;;;;0.07;100.00;101810.03;5273461;28;20051;-92
2022/04/10 05:15:07;;;;;;;15.13;13.77;;;;;;;-1.14;100.00;101601.84;5272192;28;20083;-94
2022/04/10 05:17:38;;;;;;;17.48;16.08;;;;;;;0.46;100.00;101889.13;5272668;28;20009;-92
2022/04/10 05:20:10;;;;;;;17.38;15.68;;;;;;;-0.15;100.00;101824.78;5271959;28;20023;-92
2022/04/10 05:22:40;;;;;;;16.05;14.43;;;;;;;-0.69;100.00;101750.00;5255791;28;20021;-92
2022/04/10 05:25:11;;;;;;;15.25;13.90;;;;;;;-1.07;100.00;101649.75;5272334;28;20379;-92
2022/04/10 05:27:41;;;;;;;18.63;14.10;;;;;;;-0.17;100.00;101807.34;5272461;28;20024;-93
2022/04/10 05:30:12;;;;;;;14.35;13.20;;;;;;;0.08;100.00;101871.94;5255288;28;20032;-93
2022/04/10 05:32:43;;;;;;;12.85;12.13;;;;;;;1.01;100.00;102049.69;5255218;28;20029;-93
2022/04/10 05:35:13;;;;;;;13.77;12.43;;;;;;;0.66;100.00;102004.75;5253911;28;20024;-92
2022/04/10 05:37:44;;;;;;;16.75;15.27;;;;;;;0.98;100.00;102047.38;5254534;28;20029;-93
2022/04/10 05:40:14;;;;;;;15.52;14.13;;;;;;;0.51;100.00;101967.38;5254778;28;20087;-92
2022/04/10 05:42:45;;;;;;;18.55;17.20;;;;;;;0.98;100.00;102060.66;5271709;28;20016;-94
2022/04/10 05:45:16;;;;;;;17.90;16.20;;;;;;;-1.06;100.00;101739.72;5254118;28;20021;-94
2022/04/10 05:47:47;;;;;;;18.25;16.42;;;;;;;0.86;100.00;102013.28;5254814;28;20043;-94
2022/04/10 05:50:17;;;;;;;17.33;15.82;;;;;;;1.07;100.00;102048.22;5254772;28;20039;-93
2022/04/10 05:52:50;;;;;;;15.35;13.88;;;;;;;-0.85;100.00;101779.06;5255104;28;20039;-92
2022/04/10 05:55:21;;;;;;;15.70;14.40;;;;;;;0.95;100.00;102044.19;5270644;28;20016;-93
2022/04/10 05:57:52;;;;;;;17.17;15.60;;;;;;;0.61;100.00;101989.28;5253992;28;20084;-94
2022/04/10 06:00:26;;;;;;;17.58;16.10;;;;;;;0.02;100.00;101851.34;5254705;28;20032;-93
2022/04/10 06:03:01;;;;;;;17.35;15.82;;;;;;;0.15;100.00;101868.47;5254619;28;20012;-93
2022/04/10 06:05:31;;;;;;;16.33;14.88;;;;;;;-0.56;100.00;101754.00;5254633;28;20054;-92
2022/04/10 06:08:02;;;;;;;19.80;18.08;;;;;;;0.58;100.00;101922.34;5270552;28;20056;-91
2022/04/10 06:10:32;;;;;;;15.40;14.05;;;;;;;0.38;100.00;101899.72;5250159;28;20021;-93
2022/04/10 06:13:10;;;;;;;19.23;17.05;;;;;;;0.84;100.00;101951.47;5252050;28;20021;-92
2022/04/10 06:15:40;;;;;;;18.88;17.23;;;;;;;-0.18;100.00;101803.84;5250278;28;20143;-91
2022/04/10 06:18:25;;;;;;;17.33;15.82;;;;;;;-0.70;100.00;101715.66;5236272;28;20017;-92
2022/04/10 06:20:58;;;;;;;18.88;17.45;;;;;;;-0.59;100.00;101706.59;5227025;28;20412;-90
2022/04/10 06:23:29;;;;;;;17.27;15.85;;;;;;;0.56;100.00;101889.81;5251667;28;20013;-93
2022/04/10 06:26:00;;;;;;;17.27;15.82;;;;;;;1.90;100.00;102111.91;5232477;28;20019;-93
2022/04/10 06:28:34;;;;;;;18.05;16.50;;;;;;;0.59;100.00;101858.38;5261771;28;20028;-92
2022/04/10 06:31:05;;;;;;;14.90;13.85;;;;;;;1.25;100.00;101968.22;5243055;28;20037;-93
2022/04/10 06:33:38;;;;;;;17.50;16.02;;;;;;;-0.26;100.00;101710.94;5246785;28;20024;-92
2022/04/10 06:36:10;;;;;;;17.80;16.25;;;;;;;1.30;100.00;101953.44;5237497;28;20503;-93
2022/04/10 06:38:41;;;;;;;17.40;16.00;;;;;;;-0.25;100.00;101709.94;5270500;28;20123;-92
2022/04/10 06:41:17;;;;;;;19.35;17.42;;;;;;;0.03;100.00;101728.22;5248296;28;20024;-93
2022/04/10 06:43:51;;;;;;;16.55;15.38;;;;;;;2.44;100.00;102090.81;5236656;28;20023;-91
2022/04/10 06:46:23;;;;;;;17.35;15.85;;;;;;;0.83;100.00;101844.28;5235486;28;20029;-93
2022/04/10 06:48:54;;;;;;;17.05;14.13;;;;;;;1.77;100.00;101955.31;5233998;28;20025;-92
2022/04/10 06:51:28;;;;;;;15.55;14.35;;;;;;;1.93;100.00;101967.75;5236223;28;20013;-91
2022/04/10 06:53:59;;;;;;;17.65;16.08;;;;;;;2.89;100.00;102100.75;5235395;28;20068;-92
2022/04/10 06:56:29;;;;;;;16.52;15.27;;;;;;;2.36;100.00;102003.69;5235163;28;20017;-92
2022/04/10 06:59:00;;;;;;;16.85;15.38;;;;;;;3.07;100.00;102129.84;5236533;28;20119;-93
2022/04/10 07:01:30;;;;;;;16.50;14.90;;;;;;;2.28;100.00;102001.09;5235090;28;20032;-92
2022/04/10 07:04:01;;;;;;;14.70;13.45;;;;;;;3.19;100.00;102107.91;5236766;28;20023;-92
2022/04/10 07:06:34;;;;;;;17.63;13.13;;;;;;;3.19;100.00;102097.22;5254530;28;20037;-91
2022/04/10 07:09:05;;;;;;;14.80;12.73;;;;;;;1.96;100.00;101898.16;5237135;28;20110;-92
2022/04/10 07:11:36;;;;;;;14.15;12.88;;;;;;;3.37;100.00;102103.13;5235698;28;20051;-92
2022/04/10 07:14:10;;;;;;;13.07;12.18;;;;;;;1.53;100.00;101824.94;5235639;28;20032;-92
2022/04/10 07:16:40;;;;;;;16.50;15.20;;;;;;;3.44;100.00;102089.06;5237134;22;20474;-56
2022/04/10 07:19:11;;;;;;;14.98;13.90;;;;;;;3.58;100.00;102085.59;5207028;28;20041;-58
2022/04/10 07:24:30;;;;;;;14.50;13.30;;;;;;;3.96;100.00;102116.66;5210387;28;20064;-60
2022/04/10 07:27:01;;;;;;;14.75;12.98;;;;;;;4.09;100.00;102116.00;5188899;28;20026;-60
2022/04/10 07:29:31;;;;;;;12.90;12.00;;;;;;;4.23;100.00;102117.06;5220956;23;20058;-64
2022/04/10 07:32:03;;;;;;;14.68;13.30;;;;;;;4.42;100.00;102121.84;5242889;28;20028;-65
2022/04/10 07:34:34;;;;;;;11.80;10.52;;;;;;;4.52;100.00;102121.56;5226308;28;20028;-64
2022/04/10 07:37:04;;;;;;;16.00;10.48;;;;;;;4.59;100.00;102126.00;5227832;28;20028;-64
2022/04/10 07:39:35;;;;;;;11.15;10.15;;;;;;;4.69;100.00;102131.88;5209420;28;20031;-66
2022/04/10 07:42:06;;;;;;;10.68;9.85;;;;;;;4.89;100.00;102118.78;5227929;28;20056;-64
2022/04/10 07:44:36;;;;;;;10.50;9.63;;;;;;;5.11;100.00;102137.53;5209451;28;20123;-64
2022/04/10 07:47:25;;;;;;;10.27;9.32;;;;;;;5.16;100.00;102122.56;5209731;28;20017;-65
2022/04/10 07:49:56;;;;;;;11.43;10.25;;;;;;;5.43;100.00;102142.44;5209809;28;20486;-65
2022/04/10 07:52:26;;;;;;;10.48;9.57;;;;;;;5.59;100.00;102139.47;5209625;28;20087;-65
2022/04/10 07:54:57;;;;;;;10.90;7.85;;;;;;;5.86;100.00;102137.88;5225805;28;20024;-65
2022/04/10 07:57:27;;;;;;;10.57;9.68;;;;;;;6.07;100.00;102135.16;5225964;28;20032;-66
2022/04/10 07:59:57;;;;;;;13.70;9.15;;;;;;;6.32;100.00;102140.13;5226032;28;20048;-65
2022/04/10 08:02:28;;;;;;;9.20;8.40;;;;;;;6.36;100.00;102111.84;5209302;28;20035;-64
2022/04/10 08:04:58;;;;;;;8.63;7.40;;;;;;;6.75;100.00;102143.44;5225819;28;20059;-66
2022/04/10 08:07:29;;;;;;;6.18;5.55;;;;;;;6.74;100.00;102131.88;5209515;28;20107;-64
2022/04/10 08:09:59;;;;;;;10.00;6.00;;;;;;;6.86;100.00;102125.94;5209442;28;20067;-64
2022/04/10 08:12:30;;;;;;;11.13;5.95;;;;;;;7.11;100.00;102127.88;5209936;28;20525;-64
2022/04/10 08:15:00;;;;;;;6.53;5.72;;;;;;;7.47;100.00;102150.09;5225508;28;20493;-64
2022/04/10 08:17:30;;;;;;;4.25;3.85;;;;;;;7.47;100.00;102121.38;5228125;28;20036;-65
2022/04/10 08:20:04;;;;;;;4.65;4.30;;;;;;;7.73;100.00;102142.06;5225721;28;20028;-65
2022/04/10 08:22:39;;;;;;;4.97;4.13;;;;;;;7.96;100.00;102153.25;5225843;28;20033;-65
2022/04/10 08:25:10;;;;;;;4.30;4.00;;;;;;;8.07;100.00;102144.56;5209149;28;20399;-65
2022/04/10 08:27:40;;;;;;;8.82;4.57;;;;;;;8.23;100.00;102153.22;5226182;28;20021;-65
2022/04/10 08:30:12;;;;;;;4.65;4.28;;;;;;;8.45;100.00;102147.41;5208422;28;20025;-65
2022/04/10 08:32:44;;;;;;;9.57;5.18;;;;;;;8.65;100.00;102157.31;5225521;28;20021;-64
2022/04/10 08:35:15;;;;;;;4.45;4.15;;;;;;;8.44;100.00;102126.91;5208731;28;20371;-64
2022/04/10 08:37:45;;;;;;;6.07;5.22;;;;;;;8.68;100.00;102160.41;5209120;28;20024;-63
2022/04/10 08:40:16;;;;;;;4.32;3.78;;;;;;;8.64;100.00;102148.44;5208714;28;20047;-64
2022/04/10 08:42:47;;;;;;;4.53;3.88;;;;;;;8.68;100.00;102140.72;5209064;28;20078;-64
2022/04/10 08:45:24;;;;;;;5.25;4.25;;;;;;;9.01;100.00;102156.75;5208553;28;20021;-65
2022/04/10 08:47:55;;;;;;;10.15;5.28;;;;;;;9.35;100.00;102158.25;5225723;28;20025;-65
2022/04/10 08:50:26;;;;;;;3.35;3.03;;;;;;;9.48;100.00;102150.09;5209348;28;20032;-65
2022/04/10 08:52:58;;;;;;;10.15;4.80;;;;;;;9.55;94.62;102163.53;5208666;28;20029;-65
2022/04/10 08:55:30;;;;;;;3.47;2.97;;;;;;;9.47;85.84;102160.06;5225452;28;20045;-66
2022/04/10 08:58:03;;;;;;;4.07;3.88;;;;;;;9.38;91.75;102152.44;5208326;28;20056;-64
2022/04/10 09:00:35;;;;;;;4.55;4.32;;;;;;;9.58;93.66;102157.69;5208507;28;20560;-65
2022/04/10 09:03:05;;;;;;;5.45;4.25;;;;;;;9.86;99.05;102155.41;5208960;28;20021;-65
2022/04/10 09:05:37;;;;;;;3.85;3.65;;;;;;;10.15;94.41;102153.94;5224894;28;20086;-66
2022/04/10 09:08:11;;;;;;;4.57;4.18;;;;;;;10.43;93.87;102156.19;5208174;28;20021;-66
2022/04/10 09:10:57;;;;;;;5.22;4.80;;;;;;;10.68;93.03;102150.75;5208306;28;20024;-66
2022/04/10 09:13:32;;;;;;;6.53;4.45;;;;;;;11.04;95.69;102152.56;5224419;28;20031;-65
2022/04/10 09:16:29;;;;;;;4.25;4.05;;;;;;;10.93;86.75;102156.88;5208352;28;20090;-66
2022/04/10 09:19:10;;;;;;;5.00;4.47;;;;;;;10.41;88.91;102164.50;5203671;28;20120;-66
2022/04/10 09:21:43;;;;;;;12.07;5.80;;;;;;;9.88;88.02;102158.72;5208022;28;20113;-66
2022/04/10 09:24:15;;;;;;;9.32;4.28;;;;;;;9.52;84.94;102162.13;5207718;28;20086;-66
2022/04/10 09:26:48;;;;;;;5.25;4.53;;;;;;;9.54;93.51;102153.78;5224394;28;20025;-66
2022/04/10 09:29:23;;;;;;;6.10;3.63;;;;;;;9.97;100.00;102157.41;5208014;28;20494;-66
2022/04/10 09:31:57;;;;;;;5.88;5.38;;;;;;;10.51;97.85;102153.19;5224272;28;20401;-65
2022/04/10 09:34:27;;;;;;;4.18;3.88;;;;;;;10.77;91.03;102160.19;5224087;28;20025;-66
2022/04/10 09:37:03;;;;;;;4.85;4.50;;;;;;;10.87;87.25;102141.56;5208039;28;20530;-65
2022/04/10 09:39:37;;;;;;;6.57;4.65;;;;;;;10.91;87.64;102150.88;5224256;28;20036;-66
2022/04/10 09:42:09;;;;;;;7.00;4.63;;;;;;;10.64;83.36;102160.34;5211486;28;20036;-66
2022/04/10 09:44:40;;;;;;;3.85;3.65;;;;;;;10.33;87.11;102155.88;5228305;28;20572;-66
2022/04/10 09:47:11;;;;;;;8.20;4.60;;;;;;;10.36;91.75;102152.75;5212135;28;20102;-64
2022/04/10 09:49:41;;;;;;;4.63;4.00;;;;;;;10.28;86.22;102151.16;5228506;28;20367;-65
2022/04/10 09:52:16;;;;;;;3.97;3.78;;;;;;;9.96;85.46;102153.06;5228333;28;20079;-65
2022/04/10 09:54:50;;;;;;;3.67;3.47;;;;;;;9.81;84.66;102157.97;5228540;28;20029;-66
2022/04/10 09:57:22;;;;;;;5.80;5.28;;;;;;;9.81;84.95;102158.81;5228389;28;20032;-66
2022/04/10 09:59:52;;;;;;;4.85;4.55;;;;;;;10.03;85.94;102151.13;5211833;28;20021;-66
2022/04/10 10:02:23;;;;;;;4.50;4.10;;;;;;;10.25;83.96;102132.69;5228601;28;20032;-66
2022/04/10 10:04:56;;;;;;;3.58;3.38;;;;;;;10.91;86.05;102136.53;5211526;28;20486;-67
2022/04/10 10:07:27;;;;;;;4.57;4.32;;;;;;;11.47;87.39;102126.19;5228186;28;20029;-66
2022/04/10 10:09:58;;;;;;;4.38;4.07;;;;;;;11.54;74.36;102146.91;5211617;28;20017;-67
2022/04/10 10:12:29;;;;;;;4.00;3.72;;;;;;;11.66;78.64;102143.16;5229567;28;20051;-66
2022/04/10 10:15:00;;;;;;;4.63;3.97;;;;;;;12.18;82.57;102119.81;5227981;28;20021;-67
2022/04/10 10:17:31;;;;;;;4.45;4.15;;;;;;;12.73;74.47;102134.84;5211307;28;20033;-66
2022/04/10 10:20:02;;;;;;;3.90;3.60;;;;;;;12.67;76.71;102120.38;5211038;28;20404;-67
2022/04/10 10:22:32;;;;;;;8.02;4.35;;;;;;;13.17;77.82;102138.75;5211219;28;20021;-67
2022/04/10 10:25:15;;;;;;;4.07;3.88;;;;;;;13.62;81.13;102122.47;5228978;28;20040;-67
2022/04/10 10:27:51;;;;;;;3.97;3.63;;;;;;;13.75;72.05;102138.44;5227922;28;20079;-67
2022/04/10 10:30:56;;;;;;;4.35;4.00;;;;;;;13.73;70.24;102131.63;5228337;28;20471;-67
2022/04/10 10:33:30;;;;;;;9.60;5.18;;;;;;;13.46;72.21;102128.72;5209598;28;20040;-66
2022/04/10 10:36:01;;;;;;;5.43;3.60;;;;;;;12.39;69.09;102098.63;5209828;28;20075;-66
2022/04/10 10:38:32;;;;;;;4.28;4.07;;;;;;;11.90;71.60;102113.47;5226465;28;20037;-67
2022/04/10 10:41:09;;;;;;;3.63;3.38;;;;;;;11.62;69.85;102144.69;5226253;28;20067;-66
2022/04/10 10:43:40;;;;;;;4.00;3.70;;;;;;;10.87;71.34;102111.03;5209316;28;20029;-66
2022/04/10 10:46:32;;;;;;;3.55;3.15;;;;;;;10.65;72.95;102135.00;5209755;28;20349;-66
2022/04/10 10:49:14;;;;;;;4.50;4.20;;;;;;;10.46;75.17;102147.63;5210348;28;20033;-66
2022/04/10 10:51:49;;;;;;;5.38;4.07;;;;;;;10.30;72.98;102140.97;5225980;28;20063;-66
2022/04/10 10:54:26;;;;;;;3.72;3.53;;;;;;;10.30;75.22;102142.81;5209415;28;20021;-65
2022/04/10 10:56:56;;;;;;;4.15;3.90;;;;;;;10.41;75.98;102147.47;5210088;28;20060;-66
2022/04/10 10:59:30;;;;;;;6.55;4.55;;;;;;;10.60;75.13;102138.34;5226369;28;20497;-66
2022/04/10 11:02:04;;;;;;;3.65;3.38;;;;;;;10.88;80.47;102139.69;5225973;28;20605;-66
2022/04/10 11:04:39;;;;;;;3.70;3.50;;;;;;;11.13;79.81;102137.69;5225757;28;20029;-66
2022/04/10 11:07:14;;;;;;;12.95;5.05;;;;;;;11.26;80.60;102113.16;5209796;28;20032;-66
2022/04/10 11:10:00;;;;;;;4.25;3.85;;;;;;;11.45;72.75;102132.88;5225883;28;20453;-66
2022/04/10 11:12:49;;;;;;;4.18;3.85;;;;;;;11.46;75.73;102132.66;5209277;28;20029;-66
2022/04/10 11:15:24;;;;;;;4.95;4.53;;;;;;;11.98;80.08;102108.53;5209328;28;20067;-66
2022/04/10 11:17:54;;;;;;;3.47;3.22;;;;;;;12.37;77.28;102122.44;5225969;28;20025;-67
2022/04/10 11:20:25;;;;;;;5.15;3.50;;;;;;;12.43;74.53;102113.31;5209033;28;20063;-66
2022/04/10 11:22:59;;;;;;;4.20;3.90;;;;;;;12.32;68.04;102122.31;5225820;28;20094;-66
2022/04/10 11:25:34;;;;;;;5.68;4.18;;;;;;;12.34;73.95;102115.59;5225972;28;20029;-67
2022/04/10 11:28:08;;;;;;;3.03;2.92;;;;;;;12.12;68.93;102118.09;5225874;28;20020;-66
2022/04/10 11:30:41;;;;;;;2.88;2.72;;;;;;;12.28;69.73;102113.81;5164078;28;1197133;-66
2022/04/10 11:33:13;;;;;;;3.42;3.22;;;;;;;12.25;66.64;102111.59;5189401;28;20032;-66
2022/04/10 11:35:55;;;;;;;3.67;3.45;;;;;;;12.50;68.82;102106.72;5189273;28;20041;-66
2022/04/10 11:38:25;;;;;;;3.28;3.17;;;;;;;12.60;72.77;102078.22;5189689;28;20479;-67
2022/04/10 11:40:56;;;;;;;3.35;3.15;;;;;;;13.02;72.15;102111.28;5189472;28;20056;-67